createdAt,value
2023-02-13T00:34:25.214Z,17.43
2023-02-13T00:35:25.302Z,17.44
2023-02-13T00:36:25.361Z,17.44
2023-02-13T00:37:25.440Z,17.43
2023-02-13T00:38:25.503Z,17.43
2023-02-13T00:39:25.574Z,17.43
2023-02-13T00:40:25.816Z,17.43
2023-02-13T00:41:25.727Z,17.43
2023-02-13T00:42:25.795Z,17.42
2023-02-13T00:43:25.948Z,17.42
2023-02-13T00:44:25.927Z,17.41
2023-02-13T00:45:26.016Z,17.42
2023-02-13T00:46:26.142Z,17.42
2023-02-13T00:47:26.132Z,17.41
2023-02-13T00:48:26.281Z,17.41
2023-02-13T00:49:26.269Z,17.42
2023-02-13T00:50:26.347Z,17.42
2023-02-13T00:51:26.506Z,17.41
2023-02-13T00:52:26.492Z,17.41
2023-02-13T00:53:26.571Z,17.41
2023-02-13T00:54:26.626Z,17.41
2023-02-13T00:55:26.703Z,17.40
2023-02-13T00:56:26.783Z,17.40
2023-02-13T00:57:26.847Z,17.40
2023-02-13T00:58:27.012Z,17.39
2023-02-13T00:59:26.989Z,17.39
2023-02-13T01:00:27.073Z,17.39
2023-02-13T01:01:27.154Z,17.39
2023-02-13T01:02:27.220Z,17.38
2023-02-13T01:03:27.315Z,17.38
2023-02-13T01:04:27.353Z,17.38
2023-02-13T01:05:27.422Z,17.38
2023-02-13T01:06:27.509Z,17.37
2023-02-13T01:07:27.640Z,17.37
2023-02-13T01:08:27.636Z,17.38
2023-02-13T01:09:27.721Z,17.38
2023-02-13T01:10:27.789Z,17.38
2023-02-13T01:11:27.866Z,17.38
2023-02-13T01:12:27.946Z,17.39
2023-02-13T01:13:28.011Z,17.39
2023-02-13T01:14:28.127Z,17.40
2023-02-13T01:15:28.164Z,17.40
2023-02-13T01:16:28.330Z,17.40
2023-02-13T01:17:28.312Z,17.40
2023-02-13T01:18:28.388Z,17.39
2023-02-13T01:19:29.311Z,17.40
2023-02-13T01:20:28.538Z,17.40
2023-02-13T01:21:28.659Z,17.41
2023-02-13T01:22:28.682Z,17.42
2023-02-13T01:23:28.750Z,17.42
2023-02-13T01:24:28.818Z,17.42
2023-02-13T01:25:29.032Z,17.42
2023-02-13T01:26:28.960Z,17.43
2023-02-13T01:27:29.046Z,17.43
2023-02-13T01:28:29.196Z,17.44
2023-02-13T01:29:29.165Z,17.45
2023-02-13T01:30:29.222Z,17.46
2023-02-13T01:31:29.428Z,17.46
2023-02-13T01:32:29.356Z,17.46
2023-02-13T01:33:29.416Z,17.48
2023-02-13T01:34:29.485Z,17.48
2023-02-13T01:35:29.557Z,17.49
2023-02-13T01:36:29.614Z,17.48
2023-02-13T01:37:29.660Z,17.48
2023-02-13T01:38:29.730Z,17.48
2023-02-13T01:39:29.795Z,17.49
2023-02-13T01:40:29.852Z,17.50
2023-02-13T01:41:29.914Z,17.50
2023-02-13T01:42:29.983Z,17.50
2023-02-13T01:43:30.021Z,17.51
2023-02-13T01:44:30.073Z,17.52
2023-02-13T01:45:30.121Z,17.52
2023-02-13T01:46:30.216Z,17.52
2023-02-13T01:47:30.248Z,17.52
2023-02-13T01:48:32.169Z,17.53
2023-02-13T03:49:35.169Z,17.67
2023-02-13T03:50:35.205Z,17.68
2023-02-13T03:51:35.239Z,17.68
2023-02-13T03:52:35.273Z,17.67
2023-02-13T03:53:35.296Z,17.67
2023-02-13T03:54:35.350Z,17.69
2023-02-13T03:55:35.378Z,17.70
2023-02-13T03:56:36.369Z,17.70
2023-02-13T03:57:35.459Z,17.70
2023-02-13T03:58:35.477Z,17.70
2023-02-13T03:59:35.528Z,17.69
2023-02-13T04:00:35.552Z,17.69
2023-02-13T04:01:35.648Z,17.68
2023-02-13T04:02:35.661Z,17.69
2023-02-13T04:03:35.682Z,17.69
2023-02-13T04:04:35.700Z,17.69
2023-02-13T04:05:35.733Z,17.69
2023-02-13T04:06:35.765Z,17.69
2023-02-13T04:07:35.808Z,17.69
2023-02-13T04:08:35.884Z,17.69
2023-02-13T04:09:35.864Z,17.70
2023-02-13T04:10:35.915Z,17.70
2023-02-13T04:11:35.931Z,17.70
2023-02-13T04:12:35.957Z,17.70
2023-02-13T04:13:35.996Z,17.70
2023-02-13T04:14:36.046Z,17.69
2023-02-13T04:15:36.147Z,17.71
2023-02-13T04:16:36.124Z,17.70
2023-02-13T04:17:36.124Z,17.70
2023-02-13T04:18:36.146Z,17.70
2023-02-13T04:19:36.178Z,17.69
2023-02-13T04:20:36.221Z,17.69
2023-02-13T04:21:36.253Z,17.70
2023-02-13T04:22:36.295Z,17.69
2023-02-13T04:23:37.088Z,17.69
2023-02-13T05:03:37.689Z,17.69
2023-02-13T05:04:37.765Z,17.68
2023-02-13T05:05:37.746Z,17.69
2023-02-13T05:06:37.779Z,17.68
2023-02-13T05:07:37.823Z,17.69
2023-02-13T05:08:37.865Z,17.69
2023-02-13T05:09:39.554Z,17.68
2023-02-13T05:10:38.122Z,17.69
2023-02-13T05:11:38.152Z,17.69
2023-02-13T05:12:38.174Z,17.69
2023-02-13T05:13:38.212Z,17.70
2023-02-13T05:14:38.244Z,17.70
2023-02-13T05:15:38.282Z,17.70
2023-02-13T05:16:38.305Z,17.71
2023-02-13T05:17:38.334Z,17.71
2023-02-13T05:18:38.369Z,17.72
2023-02-13T05:19:38.400Z,17.71
2023-02-13T05:20:38.430Z,17.70
2023-02-13T05:21:38.506Z,17.71
2023-02-13T05:22:38.501Z,17.70
2023-02-13T05:23:38.544Z,17.69
2023-02-13T05:24:38.652Z,17.68
2023-02-13T05:25:38.620Z,17.68
2023-02-13T05:26:38.642Z,17.69
2023-02-13T05:27:38.685Z,17.69
2023-02-13T05:28:38.749Z,17.69
2023-02-13T05:29:38.753Z,17.69
2023-02-13T05:30:38.798Z,17.68
2023-02-13T05:31:38.929Z,17.69
2023-02-13T05:32:38.862Z,17.68
2023-02-13T05:33:38.960Z,17.68
2023-02-13T05:34:39.403Z,17.68
2023-02-13T05:35:38.975Z,17.68
2023-02-13T05:36:39.001Z,17.67
2023-02-13T05:37:39.908Z,17.68
2023-02-13T05:38:39.088Z,17.67
2023-02-13T05:39:39.121Z,17.67
2023-02-13T05:40:39.154Z,17.67
2023-02-13T05:41:39.178Z,17.67
2023-02-13T05:42:39.219Z,17.68
2023-02-13T05:43:39.249Z,17.68
2023-02-13T05:44:39.301Z,17.68
2023-02-13T05:45:39.316Z,17.68
2023-02-13T05:46:39.592Z,17.67
2023-02-13T05:47:39.371Z,17.69
2023-02-13T05:48:39.401Z,17.69
2023-02-13T05:49:39.440Z,17.69
2023-02-13T05:50:39.476Z,17.68
2023-02-13T05:51:39.553Z,17.68
2023-02-13T05:52:39.527Z,17.67
2023-02-13T05:53:39.560Z,17.67
2023-02-13T05:54:39.714Z,17.67
2023-02-13T05:55:39.638Z,17.68
2023-02-13T05:56:39.661Z,17.67
2023-02-13T05:57:39.680Z,17.67
2023-02-13T05:58:39.690Z,17.67
2023-02-13T05:59:39.734Z,17.68
2023-02-13T06:00:39.775Z,17.68
2023-02-13T06:01:39.799Z,17.67
2023-02-13T06:02:39.846Z,17.66
2023-02-13T06:03:40.569Z,17.67
2023-02-13T06:04:39.878Z,17.66
2023-02-13T06:05:39.915Z,17.67
2023-02-13T06:06:39.953Z,17.66
2023-02-13T06:07:39.991Z,17.67
2023-02-13T06:08:40.017Z,17.67
2023-02-13T06:09:40.053Z,17.67
2023-02-13T06:10:40.092Z,17.67
2023-02-13T06:11:40.131Z,17.67
2023-02-13T06:12:40.176Z,17.67
2023-02-13T06:13:40.201Z,17.67
2023-02-13T06:14:40.234Z,17.67
2023-02-13T06:15:40.288Z,17.67
2023-02-13T06:16:40.301Z,17.67
2023-02-13T06:17:40.330Z,17.67
2023-02-13T06:18:40.367Z,17.67
2023-02-13T06:19:40.385Z,17.67
2023-02-13T06:20:40.417Z,17.66
2023-02-13T06:21:40.455Z,17.67
2023-02-13T06:22:40.506Z,17.66
2023-02-13T06:23:40.515Z,17.66
2023-02-13T06:24:40.546Z,17.67
2023-02-13T06:25:40.578Z,17.66
2023-02-13T06:26:40.621Z,17.67
2023-02-13T06:27:40.636Z,17.66
2023-02-13T06:28:40.748Z,17.66
2023-02-13T06:29:40.719Z,17.67
2023-02-13T06:30:40.789Z,17.66
2023-02-13T06:31:40.824Z,17.67
2023-02-13T06:32:40.812Z,17.68
2023-02-13T06:33:40.833Z,17.68
2023-02-13T06:34:40.864Z,17.69
2023-02-13T06:35:40.898Z,17.68
2023-02-13T06:36:40.923Z,17.68
2023-02-13T06:37:40.963Z,17.68
2023-02-13T06:38:40.994Z,17.69
2023-02-13T06:39:41.025Z,17.69
2023-02-13T06:40:41.186Z,17.69
2023-02-13T06:41:41.091Z,17.69
2023-02-13T06:42:41.116Z,17.69
2023-02-13T06:43:41.128Z,17.68
2023-02-13T06:44:41.185Z,17.69
2023-02-13T06:45:41.276Z,17.69
2023-02-13T06:46:41.315Z,17.67
2023-02-13T06:47:41.263Z,17.68
2023-02-13T06:48:41.305Z,17.67
2023-02-13T06:49:41.321Z,17.68
2023-02-13T06:50:41.358Z,17.67
2023-02-13T06:51:41.403Z,17.67
2023-02-13T06:52:41.415Z,17.66
2023-02-13T08:41:45.476Z,17.75
2023-02-13T08:51:45.168Z,17.80
2023-02-13T08:52:45.186Z,17.81
2023-02-13T08:53:45.212Z,17.81
2023-02-13T08:54:45.239Z,17.81
2023-02-13T08:55:45.261Z,17.81
2023-02-13T08:56:45.293Z,17.81
2023-02-13T08:57:45.314Z,17.81
2023-02-13T08:58:45.337Z,17.83
2023-02-13T08:59:45.367Z,17.83
2023-02-13T09:00:45.405Z,17.85
2023-02-13T09:01:45.422Z,17.86
2023-02-13T09:02:45.485Z,17.87
2023-02-13T09:03:45.461Z,17.87
2023-02-13T09:04:45.493Z,17.87
2023-02-13T09:05:45.551Z,17.87
2023-02-13T09:06:45.550Z,17.89
2023-02-13T09:07:45.575Z,17.89
2023-02-13T09:08:45.588Z,17.91
2023-02-13T09:09:45.614Z,17.91
2023-02-13T09:10:45.652Z,17.92
2023-02-13T09:11:45.689Z,17.94
2023-02-13T09:12:45.715Z,17.96
2023-02-13T09:14:46.020Z,18.00
2023-02-13T09:15:46.068Z,18.02
2023-02-13T09:16:46.158Z,18.04
2023-02-13T09:17:46.188Z,18.06
2023-02-13T09:18:46.328Z,18.07
2023-02-13T09:19:46.306Z,18.09
2023-02-13T09:20:46.380Z,18.11
2023-02-13T09:21:46.433Z,18.12
2023-02-13T09:22:46.491Z,18.13
2023-02-13T09:23:46.550Z,18.13
2023-02-13T09:24:46.634Z,18.15
2023-02-13T09:25:46.699Z,18.15
2023-02-13T09:26:46.830Z,18.16
2023-02-13T15:47:55.211Z,19.61
2023-02-13T15:48:55.213Z,19.61
2023-02-13T15:49:55.256Z,19.59
2023-02-13T15:50:55.581Z,19.57
2023-02-13T15:51:55.389Z,19.57
2023-02-13T15:52:55.448Z,19.56
2023-02-13T15:53:55.503Z,19.54
2023-02-13T15:54:55.572Z,19.54
2023-02-13T15:55:55.611Z,19.53
2023-02-13T15:56:55.699Z,19.52
2023-02-13T15:57:55.740Z,19.50
2023-02-13T15:58:55.788Z,19.49
2023-02-13T15:59:55.839Z,19.48
2023-02-13T16:00:56.149Z,19.47
2023-02-13T16:01:56.011Z,19.45
2023-02-13T16:02:56.104Z,19.44
2023-02-13T16:03:56.078Z,19.43
2023-02-13T16:04:56.134Z,19.42
2023-02-13T16:05:56.196Z,19.40
2023-02-13T16:06:56.314Z,19.40
2023-02-13T16:07:56.318Z,19.39
2023-02-13T16:08:56.425Z,19.38
2023-02-13T16:09:56.446Z,19.36
2023-02-13T16:10:56.892Z,19.35
2023-02-13T16:12:56.631Z,19.33
2023-02-13T16:13:56.693Z,19.32
2023-02-13T16:14:56.777Z,19.30
2023-02-13T16:15:56.858Z,19.29
2023-02-13T16:16:56.911Z,19.27
2023-02-13T16:17:56.959Z,19.27
2023-02-13T16:18:57.029Z,19.26
2023-02-13T16:19:57.107Z,19.25
2023-02-13T16:20:57.545Z,19.24
2023-02-13T16:21:57.253Z,19.23
2023-02-13T16:22:57.312Z,19.23
2023-02-13T16:23:57.381Z,19.22
2023-02-13T16:24:57.445Z,19.21
2023-02-13T16:25:57.480Z,19.20
2023-02-13T16:26:57.553Z,19.20
2023-02-13T16:27:57.623Z,19.19
2023-02-13T16:28:57.667Z,19.19
2023-02-13T16:29:57.746Z,19.18
2023-02-13T16:30:58.159Z,19.18
2023-02-13T16:31:57.882Z,19.17
2023-02-13T16:32:57.851Z,19.16
2023-02-13T16:33:57.900Z,19.16
2023-02-13T16:34:57.956Z,19.15
2023-02-13T16:35:58.017Z,19.13
2023-02-13T16:36:58.032Z,19.14
2023-02-13T16:37:58.036Z,19.12
2023-02-13T16:38:58.147Z,19.12
2023-02-13T16:39:58.110Z,19.12
2023-02-13T16:40:58.679Z,19.10
2023-02-13T16:41:58.143Z,19.10
2023-02-13T16:42:58.159Z,19.10
2023-02-13T16:43:58.184Z,19.09
2023-02-13T16:44:58.175Z,19.08
2023-02-13T16:45:58.207Z,19.08
2023-02-13T16:46:58.271Z,19.06
2023-02-13T16:47:58.254Z,19.06
2023-02-13T16:48:58.294Z,19.06
2023-02-13T16:49:58.303Z,19.06
2023-02-13T16:50:58.624Z,19.05
2023-02-13T16:51:58.357Z,19.04
2023-02-13T16:52:58.367Z,19.03
2023-02-13T16:53:58.394Z,19.03
2023-02-13T16:54:58.411Z,19.02
2023-02-13T16:55:58.425Z,19.01
2023-02-13T16:56:58.461Z,19.01
2023-02-13T16:57:58.556Z,19.00
2023-02-13T19:52:05.214Z,18.54
2023-02-13T19:53:05.268Z,18.54
2023-02-13T19:54:05.316Z,18.54
2023-02-13T19:55:05.359Z,18.53
2023-02-13T19:56:05.432Z,18.53
2023-02-13T19:57:05.502Z,18.54
2023-02-13T20:00:05.672Z,18.55
2023-02-13T20:31:07.808Z,18.47
2023-02-13T22:15:15.221Z,18.35
2023-02-13T22:16:15.291Z,18.35
2023-02-13T22:17:15.375Z,18.34
2023-02-13T22:18:15.456Z,18.34
2023-02-13T22:19:15.534Z,18.34
2023-02-13T22:20:15.597Z,18.34
2023-02-13T22:21:15.683Z,18.33
2023-02-13T22:22:15.756Z,18.34
2023-02-13T22:23:15.843Z,18.34
2023-02-13T22:24:15.898Z,18.34
2023-02-13T22:25:15.983Z,18.33
2023-02-13T22:26:16.035Z,18.33
2023-02-13T22:27:16.140Z,18.33
2023-02-13T22:28:16.215Z,18.33
2023-02-13T22:29:16.311Z,18.33
2023-02-13T22:30:16.522Z,18.34
2023-02-13T22:31:16.511Z,18.33
2023-02-13T22:32:16.597Z,18.35
2023-02-13T22:33:16.579Z,18.34
2023-02-13T22:34:16.667Z,18.33
2023-02-13T22:35:16.730Z,18.34
2023-02-13T22:36:16.837Z,18.33
2023-02-13T22:37:16.886Z,18.33
2023-02-13T22:39:17.038Z,18.33
2023-02-13T22:40:17.105Z,18.32
2023-02-13T22:41:17.169Z,18.32
2023-02-13T22:42:17.236Z,18.32
2023-02-13T22:43:17.313Z,18.32
2023-02-13T22:44:17.366Z,18.32
2023-02-13T22:46:17.546Z,18.31
2023-02-13T22:47:17.573Z,18.31
2023-02-13T22:48:17.655Z,18.31
